sensor_id;sensor_type;location;lat;lon;timestamp;temperature;humidity
68098;DHT22;54886;47.036;15.466;2023-06-14T00:02:06;17.37;67.72
68098;DHT22;54886;47.036;15.466;2023-06-14T00:04:33;17.30;69.34
68098;DHT22;54886;47.036;15.466;2023-06-14T00:07:00;17.34;67.78
68098;DHT22;54886;47.036;15.466;2023-06-14T00:09:25;17.34;68.19
68098;DHT22;54886;47.036;15.466;2023-06-14T00:11:51;17.26;68.40
68098;DHT22;54886;47.036;15.466;2023-06-14T00:14:16;17.33;67.30
68098;DHT22;54886;47.036;15.466;2023-06-14T00:16:42;17.33;67.87
68098;DHT22;54886;47.036;15.466;2023-06-14T00:19:08;17.27;67.49
68098;DHT22;54886;47.036;15.466;2023-06-14T00:21:36;17.24;67.88
68098;DHT22;54886;47.036;15.466;2023-06-14T00:24:02;17.26;67.53
68098;DHT22;54886;47.036;15.466;2023-06-14T00:26:27;17.23;67.11
68098;DHT22;54886;47.036;15.466;2023-06-14T00:28:53;17.24;68.15
68098;DHT22;54886;47.036;15.466;2023-06-14T00:31:19;17.23;68.99
68098;DHT22;54886;47.036;15.466;2023-06-14T00:33:45;17.20;69.77
68098;DHT22;54886;47.036;15.466;2023-06-14T00:36:10;17.19;70.00
68098;DHT22;54886;47.036;15.466;2023-06-14T00:38:36;17.19;69.67
68098;DHT22;54886;47.036;15.466;2023-06-14T00:41:01;17.14;70.86
68098;DHT22;54886;47.036;15.466;2023-06-14T00:43:27;17.13;70.98
68098;DHT22;54886;47.036;15.466;2023-06-14T00:45:52;17.12;71.28
68098;DHT22;54886;47.036;15.466;2023-06-14T00:48:17;17.07;71.91
68098;DHT22;54886;47.036;15.466;2023-06-14T00:50:45;17.04;71.67
68098;DHT22;54886;47.036;15.466;2023-06-14T00:53:14;17.04;69.87
68098;DHT22;54886;47.036;15.466;2023-06-14T00:55:42;17.09;71.00
68098;DHT22;54886;47.036;15.466;2023-06-14T00:58:09;17.13;69.28
68098;DHT22;54886;47.036;15.466;2023-06-14T01:00:34;17.10;70.69
68098;DHT22;54886;47.036;15.466;2023-06-14T01:03:01;17.03;71.81
68098;DHT22;54886;47.036;15.466;2023-06-14T01:05:26;17.04;71.14
68098;DHT22;54886;47.036;15.466;2023-06-14T01:08:23;17.10;70.30
68098;DHT22;54886;47.036;15.466;2023-06-14T01:11:10;17.06;71.92
68098;DHT22;54886;47.036;15.466;2023-06-14T01:13:40;17.07;73.79
68098;DHT22;54886;47.036;15.466;2023-06-14T01:16:08;17.03;74.26
68098;DHT22;54886;47.036;15.466;2023-06-14T01:18:34;17.00;74.23
68098;DHT22;54886;47.036;15.466;2023-06-14T01:21:00;17.00;72.99
68098;DHT22;54886;47.036;15.466;2023-06-14T01:23:31;16.96;73.90
68098;DHT22;54886;47.036;15.466;2023-06-14T01:26:00;16.96;72.53
68098;DHT22;54886;47.036;15.466;2023-06-14T01:28:28;16.90;73.31
68098;DHT22;54886;47.036;15.466;2023-06-14T01:30:59;16.87;73.77
68098;DHT22;54886;47.036;15.466;2023-06-14T01:33:27;16.85;74.20
68098;DHT22;54886;47.036;15.466;2023-06-14T01:35:53;16.80;74.19
68098;DHT22;54886;47.036;15.466;2023-06-14T01:38:22;16.85;73.84
68098;DHT22;54886;47.036;15.466;2023-06-14T01:40:48;16.78;74.47
68098;DHT22;54886;47.036;15.466;2023-06-14T01:43:16;16.76;73.66
68098;DHT22;54886;47.036;15.466;2023-06-14T01:45:44;16.76;73.71
68098;DHT22;54886;47.036;15.466;2023-06-14T01:48:11;16.79;73.87
68098;DHT22;54886;47.036;15.466;2023-06-14T01:50:37;16.76;75.00
68098;DHT22;54886;47.036;15.466;2023-06-14T01:53:02;16.78;72.48
68098;DHT22;54886;47.036;15.466;2023-06-14T01:55:28;16.75;75.28
68098;DHT22;54886;47.036;15.466;2023-06-14T01:57:53;16.68;74.29
68098;DHT22;54886;47.036;15.466;2023-06-14T02:00:19;16.68;74.87
68098;DHT22;54886;47.036;15.466;2023-06-14T02:02:46;16.72;72.11
68098;DHT22;54886;47.036;15.466;2023-06-14T02:05:12;16.75;71.76
68098;DHT22;54886;47.036;15.466;2023-06-14T02:07:37;16.71;75.73
68098;DHT22;54886;47.036;15.466;2023-06-14T02:10:04;16.68;74.40
68098;DHT22;54886;47.036;15.466;2023-06-14T02:12:30;16.68;73.66
68098;DHT22;54886;47.036;15.466;2023-06-14T02:14:55;16.67;74.29
68098;DHT22;54886;47.036;15.466;2023-06-14T02:17:22;16.62;75.79
68098;DHT22;54886;47.036;15.466;2023-06-14T02:19:47;16.64;73.64
68098;DHT22;54886;47.036;15.466;2023-06-14T02:22:14;16.57;74.38
68098;DHT22;54886;47.036;15.466;2023-06-14T02:24:40;16.57;72.90
68098;DHT22;54886;47.036;15.466;2023-06-14T02:27:05;16.57;73.25
68098;DHT22;54886;47.036;15.466;2023-06-14T02:29:32;16.52;72.37
68098;DHT22;54886;47.036;15.466;2023-06-14T02:31:57;16.52;73.85
68098;DHT22;54886;47.036;15.466;2023-06-14T02:34:22;16.45;73.69
68098;DHT22;54886;47.036;15.466;2023-06-14T02:36:48;16.50;73.54
68098;DHT22;54886;47.036;15.466;2023-06-14T02:39:13;16.51;72.20
68098;DHT22;54886;47.036;15.466;2023-06-14T02:41:39;16.45;72.40
68098;DHT22;54886;47.036;15.466;2023-06-14T02:44:05;16.45;72.07
68098;DHT22;54886;47.036;15.466;2023-06-14T02:46:31;16.47;71.33
68098;DHT22;54886;47.036;15.466;2023-06-14T02:48:56;16.44;72.13
68098;DHT22;54886;47.036;15.466;2023-06-14T02:51:22;16.42;72.56
68098;DHT22;54886;47.036;15.466;2023-06-14T02:53:47;16.38;72.56
68098;DHT22;54886;47.036;15.466;2023-06-14T02:56:12;16.34;74.62
68098;DHT22;54886;47.036;15.466;2023-06-14T02:58:38;16.40;73.19
68098;DHT22;54886;47.036;15.466;2023-06-14T03:01:05;16.32;73.55
68098;DHT22;54886;47.036;15.466;2023-06-14T03:03:31;16.34;71.85
68098;DHT22;54886;47.036;15.466;2023-06-14T03:05:57;16.35;74.61
68098;DHT22;54886;47.036;15.466;2023-06-14T03:08:22;16.35;72.00
68098;DHT22;54886;47.036;15.466;2023-06-14T03:10:52;16.37;72.46
68098;DHT22;54886;47.036;15.466;2023-06-14T03:13:18;16.32;74.38
68098;DHT22;54886;47.036;15.466;2023-06-14T03:15:47;16.32;72.53
68098;DHT22;54886;47.036;15.466;2023-06-14T03:18:16;16.34;75.43
68098;DHT22;54886;47.036;15.466;2023-06-14T03:20:41;16.32;74.82
68098;DHT22;54886;47.036;15.466;2023-06-14T03:23:08;16.24;76.07
68098;DHT22;54886;47.036;15.466;2023-06-14T03:25:33;16.24;76.04
68098;DHT22;54886;47.036;15.466;2023-06-14T03:28:01;16.21;75.06
68098;DHT22;54886;47.036;15.466;2023-06-14T03:30:26;16.23;73.60
68098;DHT22;54886;47.036;15.466;2023-06-14T03:32:52;16.25;75.90
68098;DHT22;54886;47.036;15.466;2023-06-14T03:35:18;16.27;74.16
68098;DHT22;54886;47.036;15.466;2023-06-14T03:37:46;16.27;73.64
68098;DHT22;54886;47.036;15.466;2023-06-14T03:40:11;16.28;73.12
68098;DHT22;54886;47.036;15.466;2023-06-14T03:42:37;16.30;74.02
68098;DHT22;54886;47.036;15.466;2023-06-14T03:45:03;16.25;74.27
68098;DHT22;54886;47.036;15.466;2023-06-14T03:47:29;16.28;71.75
68098;DHT22;54886;47.036;15.466;2023-06-14T03:49:54;16.30;72.25
68098;DHT22;54886;47.036;15.466;2023-06-14T03:52:20;16.27;73.66
68098;DHT22;54886;47.036;15.466;2023-06-14T03:54:47;16.24;72.63
68098;DHT22;54886;47.036;15.466;2023-06-14T03:57:12;16.14;72.43
68098;DHT22;54886;47.036;15.466;2023-06-14T03:59:38;16.14;72.09
68098;DHT22;54886;47.036;15.466;2023-06-14T04:02:03;16.12;72.65
68098;DHT22;54886;47.036;15.466;2023-06-14T04:04:29;16.10;72.52
68098;DHT22;54886;47.036;15.466;2023-06-14T04:06:55;16.07;72.94
68098;DHT22;54886;47.036;15.466;2023-06-14T04:09:25;16.07;72.32
68098;DHT22;54886;47.036;15.466;2023-06-14T04:11:54;16.07;72.18
68098;DHT22;54886;47.036;15.466;2023-06-14T04:14:20;16.10;71.55
68098;DHT22;54886;47.036;15.466;2023-06-14T04:16:47;16.09;73.40
68098;DHT22;54886;47.036;15.466;2023-06-14T04:19:12;16.06;72.92
68098;DHT22;54886;47.036;15.466;2023-06-14T04:21:38;16.09;73.01
68098;DHT22;54886;47.036;15.466;2023-06-14T04:24:03;16.06;72.37
68098;DHT22;54886;47.036;15.466;2023-06-14T04:26:29;16.06;72.61
68098;DHT22;54886;47.036;15.466;2023-06-14T04:28:55;16.09;71.78
68098;DHT22;54886;47.036;15.466;2023-06-14T04:31:22;16.07;71.17
68098;DHT22;54886;47.036;15.466;2023-06-14T04:33:50;16.06;71.09
68098;DHT22;54886;47.036;15.466;2023-06-14T04:36:18;16.00;73.44
68098;DHT22;54886;47.036;15.466;2023-06-14T04:38:44;16.02;71.61
68098;DHT22;54886;47.036;15.466;2023-06-14T04:41:11;16.02;72.47
68098;DHT22;54886;47.036;15.466;2023-06-14T04:43:37;16.02;72.05
68098;DHT22;54886;47.036;15.466;2023-06-14T04:46:06;16.03;72.44
68098;DHT22;54886;47.036;15.466;2023-06-14T04:48:39;16.03;71.81
68098;DHT22;54886;47.036;15.466;2023-06-14T04:51:06;16.04;71.97
68098;DHT22;54886;47.036;15.466;2023-06-14T04:53:32;16.06;72.55
68098;DHT22;54886;47.036;15.466;2023-06-14T04:55:57;16.06;72.05
68098;DHT22;54886;47.036;15.466;2023-06-14T04:58:22;16.09;71.71
68098;DHT22;54886;47.036;15.466;2023-06-14T05:00:48;16.03;72.13
68098;DHT22;54886;47.036;15.466;2023-06-14T05:03:13;16.06;71.97
68098;DHT22;54886;47.036;15.466;2023-06-14T05:05:42;16.04;72.54
68098;DHT22;54886;47.036;15.466;2023-06-14T05:08:07;16.04;73.58
68098;DHT22;54886;47.036;15.466;2023-06-14T05:10:34;16.04;73.70
68098;DHT22;54886;47.036;15.466;2023-06-14T05:13:01;16.04;73.36
68098;DHT22;54886;47.036;15.466;2023-06-14T05:15:26;16.06;74.36
68098;DHT22;54886;47.036;15.466;2023-06-14T05:17:53;16.07;74.74
68098;DHT22;54886;47.036;15.466;2023-06-14T05:20:21;16.06;74.41
68098;DHT22;54886;47.036;15.466;2023-06-14T05:22:48;16.10;74.53
68098;DHT22;54886;47.036;15.466;2023-06-14T05:25:16;16.12;74.08
68098;DHT22;54886;47.036;15.466;2023-06-14T05:27:42;16.14;74.43
68098;DHT22;54886;47.036;15.466;2023-06-14T05:30:08;16.12;72.52
68098;DHT22;54886;47.036;15.466;2023-06-14T05:32:33;16.12;71.49
68098;DHT22;54886;47.036;15.466;2023-06-14T05:34:59;16.12;73.21
68098;DHT22;54886;47.036;15.466;2023-06-14T05:37:24;16.13;75.22
68098;DHT22;54886;47.036;15.466;2023-06-14T05:39:50;16.12;73.26
68098;DHT22;54886;47.036;15.466;2023-06-14T05:42:15;16.12;71.59
68098;DHT22;54886;47.036;15.466;2023-06-14T05:44:41;16.10;71.95
68098;DHT22;54886;47.036;15.466;2023-06-14T05:47:06;16.09;73.41
68098;DHT22;54886;47.036;15.466;2023-06-14T05:49:31;16.12;73.69
68098;DHT22;54886;47.036;15.466;2023-06-14T05:51:57;16.10;74.35
68098;DHT22;54886;47.036;15.466;2023-06-14T05:54:22;16.10;73.90
68098;DHT22;54886;47.036;15.466;2023-06-14T05:56:47;16.13;74.33
68098;DHT22;54886;47.036;15.466;2023-06-14T05:59:13;16.12;73.31
68098;DHT22;54886;47.036;15.466;2023-06-14T06:01:38;16.13;75.89
68098;DHT22;54886;47.036;15.466;2023-06-14T06:04:05;16.12;75.94
68098;DHT22;54886;47.036;15.466;2023-06-14T06:06:31;16.16;73.81
68098;DHT22;54886;47.036;15.466;2023-06-14T06:08:57;16.16;75.70
68098;DHT22;54886;47.036;15.466;2023-06-14T06:11:23;16.18;75.25
68098;DHT22;54886;47.036;15.466;2023-06-14T06:13:48;16.16;76.31
68098;DHT22;54886;47.036;15.466;2023-06-14T06:16:14;16.14;75.28
68098;DHT22;54886;47.036;15.466;2023-06-14T06:18:40;16.17;75.01
68098;DHT22;54886;47.036;15.466;2023-06-14T06:21:06;16.16;74.51
68098;DHT22;54886;47.036;15.466;2023-06-14T06:23:31;16.16;75.91
68098;DHT22;54886;47.036;15.466;2023-06-14T06:25:57;16.16;75.16
68098;DHT22;54886;47.036;15.466;2023-06-14T06:28:22;16.18;75.54
68098;DHT22;54886;47.036;15.466;2023-06-14T06:30:48;16.18;76.39
68098;DHT22;54886;47.036;15.466;2023-06-14T06:33:13;16.13;77.10
68098;DHT22;54886;47.036;15.466;2023-06-14T06:35:39;16.14;76.81
68098;DHT22;54886;47.036;15.466;2023-06-14T06:38:05;16.14;77.64
68098;DHT22;54886;47.036;15.466;2023-06-14T06:40:30;16.12;78.57
68098;DHT22;54886;47.036;15.466;2023-06-14T06:42:56;16.09;78.77
68098;DHT22;54886;47.036;15.466;2023-06-14T06:45:21;15.99;78.54
68098;DHT22;54886;47.036;15.466;2023-06-14T06:47:48;16.03;77.44
68098;DHT22;54886;47.036;15.466;2023-06-14T06:50:14;16.02;78.28
68098;DHT22;54886;47.036;15.466;2023-06-14T06:52:39;16.06;78.33
68098;DHT22;54886;47.036;15.466;2023-06-14T06:55:05;16.07;78.95
68098;DHT22;54886;47.036;15.466;2023-06-14T06:57:30;16.09;78.30
68098;DHT22;54886;47.036;15.466;2023-06-14T06:59:57;16.03;78.07
68098;DHT22;54886;47.036;15.466;2023-06-14T07:02:22;16.02;77.48
68098;DHT22;54886;47.036;15.466;2023-06-14T07:04:48;16.00;76.52
68098;DHT22;54886;47.036;15.466;2023-06-14T07:07:13;16.00;76.45
68098;DHT22;54886;47.036;15.466;2023-06-14T07:09:38;15.97;76.31
68098;DHT22;54886;47.036;15.466;2023-06-14T07:12:04;15.95;76.98
68098;DHT22;54886;47.036;15.466;2023-06-14T07:14:30;15.92;77.03
68098;DHT22;54886;47.036;15.466;2023-06-14T07:16:55;15.90;75.92
68098;DHT22;54886;47.036;15.466;2023-06-14T07:19:21;15.90;75.74
68098;DHT22;54886;47.036;15.466;2023-06-14T07:21:46;15.89;76.27
68098;DHT22;54886;47.036;15.466;2023-06-14T07:24:12;15.87;76.43
68098;DHT22;54886;47.036;15.466;2023-06-14T07:26:37;15.82;75.01
68098;DHT22;54886;47.036;15.466;2023-06-14T07:29:03;15.83;75.05
68098;DHT22;54886;47.036;15.466;2023-06-14T07:31:28;15.81;76.29
68098;DHT22;54886;47.036;15.466;2023-06-14T07:33:54;15.78;77.79
68098;DHT22;54886;47.036;15.466;2023-06-14T07:36:19;15.76;78.45
68098;DHT22;54886;47.036;15.466;2023-06-14T07:38:45;15.81;76.47
68098;DHT22;54886;47.036;15.466;2023-06-14T07:41:11;15.79;77.64
68098;DHT22;54886;47.036;15.466;2023-06-14T07:43:36;15.81;78.51
68098;DHT22;54886;47.036;15.466;2023-06-14T07:46:02;15.79;78.12
68098;DHT22;54886;47.036;15.466;2023-06-14T07:48:28;15.78;76.45
68098;DHT22;54886;47.036;15.466;2023-06-14T07:50:53;15.79;76.35
68098;DHT22;54886;47.036;15.466;2023-06-14T07:53:18;15.79;77.73
68098;DHT22;54886;47.036;15.466;2023-06-14T07:55:44;15.81;77.51
68098;DHT22;54886;47.036;15.466;2023-06-14T07:58:09;15.81;77.78
68098;DHT22;54886;47.036;15.466;2023-06-14T08:00:36;15.78;77.57
68098;DHT22;54886;47.036;15.466;2023-06-14T08:03:01;15.83;78.45
68098;DHT22;54886;47.036;15.466;2023-06-14T08:05:27;15.82;75.44
68098;DHT22;54886;47.036;15.466;2023-06-14T08:07:53;15.83;79.15
68098;DHT22;54886;47.036;15.466;2023-06-14T08:10:19;15.85;78.53
68098;DHT22;54886;47.036;15.466;2023-06-14T08:12:45;15.86;75.99
68098;DHT22;54886;47.036;15.466;2023-06-14T08:15:10;15.87;78.68
68098;DHT22;54886;47.036;15.466;2023-06-14T08:17:36;15.86;76.32
68098;DHT22;54886;47.036;15.466;2023-06-14T08:20:02;15.90;77.90
68098;DHT22;54886;47.036;15.466;2023-06-14T08:22:29;15.90;78.76
68098;DHT22;54886;47.036;15.466;2023-06-14T08:24:57;15.83;74.54
68098;DHT22;54886;47.036;15.466;2023-06-14T08:27:23;15.82;76.26
68098;DHT22;54886;47.036;15.466;2023-06-14T08:29:48;15.79;75.26
68098;DHT22;54886;47.036;15.466;2023-06-14T08:32:14;15.82;75.23
68098;DHT22;54886;47.036;15.466;2023-06-14T08:34:39;15.72;77.82
68098;DHT22;54886;47.036;15.466;2023-06-14T08:37:05;15.73;75.52
68098;DHT22;54886;47.036;15.466;2023-06-14T08:39:31;15.70;75.87
68098;DHT22;54886;47.036;15.466;2023-06-14T08:41:57;15.72;77.14
68098;DHT22;54886;47.036;15.466;2023-06-14T08:44:23;15.75;74.25
68098;DHT22;54886;47.036;15.466;2023-06-14T08:46:48;15.66;73.93
68098;DHT22;54886;47.036;15.466;2023-06-14T08:49:16;15.58;75.25
68098;DHT22;54886;47.036;15.466;2023-06-14T08:51:43;15.57;75.28
68098;DHT22;54886;47.036;15.466;2023-06-14T08:54:10;15.52;76.33
68098;DHT22;54886;47.036;15.466;2023-06-14T08:56:38;15.55;75.75
68098;DHT22;54886;47.036;15.466;2023-06-14T08:59:04;15.52;76.53
68098;DHT22;54886;47.036;15.466;2023-06-14T09:01:33;15.55;76.01
68098;DHT22;54886;47.036;15.466;2023-06-14T09:03:59;15.55;76.69
68098;DHT22;54886;47.036;15.466;2023-06-14T09:06:25;15.58;76.32
68098;DHT22;54886;47.036;15.466;2023-06-14T09:08:54;15.57;77.16
68098;DHT22;54886;47.036;15.466;2023-06-14T09:11:20;15.61;77.07
68098;DHT22;54886;47.036;15.466;2023-06-14T09:13:46;15.59;76.56
68098;DHT22;54886;47.036;15.466;2023-06-14T09:16:12;15.58;77.14
68098;DHT22;54886;47.036;15.466;2023-06-14T09:18:39;15.65;77.04
68098;DHT22;54886;47.036;15.466;2023-06-14T09:21:08;15.61;79.35
68098;DHT22;54886;47.036;15.466;2023-06-14T09:23:36;15.62;77.19
68098;DHT22;54886;47.036;15.466;2023-06-14T09:26:07;15.68;76.84
68098;DHT22;54886;47.036;15.466;2023-06-14T09:28:32;15.66;78.80
68098;DHT22;54886;47.036;15.466;2023-06-14T09:30:57;15.69;78.47
68098;DHT22;54886;47.036;15.466;2023-06-14T09:33:23;15.66;77.96
68098;DHT22;54886;47.036;15.466;2023-06-14T09:35:51;15.61;79.20
68098;DHT22;54886;47.036;15.466;2023-06-14T09:38:17;15.62;77.69
68098;DHT22;54886;47.036;15.466;2023-06-14T09:40:43;15.61;78.52
68098;DHT22;54886;47.036;15.466;2023-06-14T09:43:08;15.58;77.70
68098;DHT22;54886;47.036;15.466;2023-06-14T09:45:35;15.58;78.42
68098;DHT22;54886;47.036;15.466;2023-06-14T09:48:01;15.63;77.91
68098;DHT22;54886;47.036;15.466;2023-06-14T09:50:27;15.66;78.48
68098;DHT22;54886;47.036;15.466;2023-06-14T09:52:54;15.70;78.29
68098;DHT22;54886;47.036;15.466;2023-06-14T09:55:23;15.68;79.08
68098;DHT22;54886;47.036;15.466;2023-06-14T09:57:50;15.70;79.16
68098;DHT22;54886;47.036;15.466;2023-06-14T10:00:18;15.70;80.18
68098;DHT22;54886;47.036;15.466;2023-06-14T10:02:49;15.75;79.64
68098;DHT22;54886;47.036;15.466;2023-06-14T10:05:19;15.81;79.88
68098;DHT22;54886;47.036;15.466;2023-06-14T10:07:53;15.83;79.23
68098;DHT22;54886;47.036;15.466;2023-06-14T10:10:21;15.83;79.38
68098;DHT22;54886;47.036;15.466;2023-06-14T10:12:47;15.86;75.74
68098;DHT22;54886;47.036;15.466;2023-06-14T10:15:19;15.95;79.01
68098;DHT22;54886;47.036;15.466;2023-06-14T10:17:51;15.93;77.49
68098;DHT22;54886;47.036;15.466;2023-06-14T10:20:28;15.93;77.49
68098;DHT22;54886;47.036;15.466;2023-06-14T10:23:03;15.93;78.40
68098;DHT22;54886;47.036;15.466;2023-06-14T10:25:30;16.07;79.17
68098;DHT22;54886;47.036;15.466;2023-06-14T10:30:37;16.25;78.43
68098;DHT22;54886;47.036;15.466;2023-06-14T10:33:06;16.31;77.55
68098;DHT22;54886;47.036;15.466;2023-06-14T10:35:32;16.37;78.81
68098;DHT22;54886;47.036;15.466;2023-06-14T10:38:11;16.41;77.43
68098;DHT22;54886;47.036;15.466;2023-06-14T10:40:38;16.52;76.84
68098;DHT22;54886;47.036;15.466;2023-06-14T10:43:22;16.57;74.72
68098;DHT22;54886;47.036;15.466;2023-06-14T10:48:41;16.62;72.83
68098;DHT22;54886;47.036;15.466;2023-06-14T10:51:18;16.68;72.96
68098;DHT22;54886;47.036;15.466;2023-06-14T10:53:48;16.73;74.44
68098;DHT22;54886;47.036;15.466;2023-06-14T10:56:26;16.73;75.34
68098;DHT22;54886;47.036;15.466;2023-06-14T10:58:53;16.78;75.16
68098;DHT22;54886;47.036;15.466;2023-06-14T11:01:28;16.86;73.61
68098;DHT22;54886;47.036;15.466;2023-06-14T11:03:57;16.92;74.23
68098;DHT22;54886;47.036;15.466;2023-06-14T11:06:49;17.06;75.36
68098;DHT22;54886;47.036;15.466;2023-06-14T11:11:45;17.20;73.94
68098;DHT22;54886;47.036;15.466;2023-06-14T11:14:11;17.23;71.69
68098;DHT22;54886;47.036;15.466;2023-06-14T11:16:37;17.21;71.08
68098;DHT22;54886;47.036;15.466;2023-06-14T11:19:02;17.23;70.26
68098;DHT22;54886;47.036;15.466;2023-06-14T11:21:34;17.24;69.23
68098;DHT22;54886;47.036;15.466;2023-06-14T11:23:59;17.27;71.02
68098;DHT22;54886;47.036;15.466;2023-06-14T11:26:26;17.31;71.89
68098;DHT22;54886;47.036;15.466;2023-06-14T11:28:55;17.31;70.66
68098;DHT22;54886;47.036;15.466;2023-06-14T11:31:22;17.34;69.98
68098;DHT22;54886;47.036;15.466;2023-06-14T11:33:49;17.34;70.60
68098;DHT22;54886;47.036;15.466;2023-06-14T11:36:15;17.38;72.30
68098;DHT22;54886;47.036;15.466;2023-06-14T11:38:41;17.44;69.51
68098;DHT22;54886;47.036;15.466;2023-06-14T11:41:06;17.44;68.71
68098;DHT22;54886;47.036;15.466;2023-06-14T11:43:32;17.45;68.71
68098;DHT22;54886;47.036;15.466;2023-06-14T11:45:58;17.47;68.52
68098;DHT22;54886;47.036;15.466;2023-06-14T11:48:36;17.51;69.14
68098;DHT22;54886;47.036;15.466;2023-06-14T11:51:01;17.51;68.06
68098;DHT22;54886;47.036;15.466;2023-06-14T11:53:26;17.52;67.73
68098;DHT22;54886;47.036;15.466;2023-06-14T11:55:52;17.51;67.74
68098;DHT22;54886;47.036;15.466;2023-06-14T11:58:18;17.42;68.27
68098;DHT22;54886;47.036;15.466;2023-06-14T12:00:43;17.45;70.20
68098;DHT22;54886;47.036;15.466;2023-06-14T12:03:09;17.48;69.26
68098;DHT22;54886;47.036;15.466;2023-06-14T12:05:35;17.48;70.68
68098;DHT22;54886;47.036;15.466;2023-06-14T12:08:02;17.54;69.42
68098;DHT22;54886;47.036;15.466;2023-06-14T12:10:28;17.55;70.62
68098;DHT22;54886;47.036;15.466;2023-06-14T12:12:57;17.61;70.15
68098;DHT22;54886;47.036;15.466;2023-06-14T12:15:23;17.61;70.32
68098;DHT22;54886;47.036;15.466;2023-06-14T12:17:49;17.64;70.10
68098;DHT22;54886;47.036;15.466;2023-06-14T12:20:15;17.69;70.49
68098;DHT22;54886;47.036;15.466;2023-06-14T12:22:58;17.71;69.32
68098;DHT22;54886;47.036;15.466;2023-06-14T12:25:28;17.68;67.61
68098;DHT22;54886;47.036;15.466;2023-06-14T12:27:57;17.71;68.15
68098;DHT22;54886;47.036;15.466;2023-06-14T12:30:22;17.72;68.47
68098;DHT22;54886;47.036;15.466;2023-06-14T12:32:49;17.75;70.04
68098;DHT22;54886;47.036;15.466;2023-06-14T12:35:17;17.81;69.34
68098;DHT22;54886;47.036;15.466;2023-06-14T12:37:43;17.81;68.93
68098;DHT22;54886;47.036;15.466;2023-06-14T12:40:09;17.83;69.24
68098;DHT22;54886;47.036;15.466;2023-06-14T12:42:36;17.82;69.28
68098;DHT22;54886;47.036;15.466;2023-06-14T12:45:02;17.89;67.98
68098;DHT22;54886;47.036;15.466;2023-06-14T12:47:27;17.93;68.33
68098;DHT22;54886;47.036;15.466;2023-06-14T12:49:53;17.95;68.17
68098;DHT22;54886;47.036;15.466;2023-06-14T12:52:18;17.96;67.89
68098;DHT22;54886;47.036;15.466;2023-06-14T12:54:43;17.95;68.26
68098;DHT22;54886;47.036;15.466;2023-06-14T12:57:09;18.02;68.25
68098;DHT22;54886;47.036;15.466;2023-06-14T12:59:35;18.02;66.61
68098;DHT22;54886;47.036;15.466;2023-06-14T13:04:36;18.02;67.48
68098;DHT22;54886;47.036;15.466;2023-06-14T13:07:01;18.00;68.19
68098;DHT22;54886;47.036;15.466;2023-06-14T13:09:27;18.02;69.60
68098;DHT22;54886;47.036;15.466;2023-06-14T13:11:52;18.04;69.05
68098;DHT22;54886;47.036;15.466;2023-06-14T13:14:17;18.07;68.36
68098;DHT22;54886;47.036;15.466;2023-06-14T13:16:43;18.04;68.91
68098;DHT22;54886;47.036;15.466;2023-06-14T13:19:09;18.07;69.44
68098;DHT22;54886;47.036;15.466;2023-06-14T13:21:34;18.07;69.10
68098;DHT22;54886;47.036;15.466;2023-06-14T13:24:00;18.06;68.67
68098;DHT22;54886;47.036;15.466;2023-06-14T13:26:25;18.06;67.82
68098;DHT22;54886;47.036;15.466;2023-06-14T13:28:52;18.02;68.42
68098;DHT22;54886;47.036;15.466;2023-06-14T13:31:17;18.04;69.94
68098;DHT22;54886;47.036;15.466;2023-06-14T13:33:42;18.06;70.61
68098;DHT22;54886;47.036;15.466;2023-06-14T13:36:08;18.06;68.81
68098;DHT22;54886;47.036;15.466;2023-06-14T13:38:33;18.10;69.32
68098;DHT22;54886;47.036;15.466;2023-06-14T13:40:59;18.14;69.77
68098;DHT22;54886;47.036;15.466;2023-06-14T13:43:24;18.23;70.27
68098;DHT22;54886;47.036;15.466;2023-06-14T13:45:49;18.31;70.48
68098;DHT22;54886;47.036;15.466;2023-06-14T13:48:15;18.38;70.70
68098;DHT22;54886;47.036;15.466;2023-06-14T13:50:40;18.40;70.27
68098;DHT22;54886;47.036;15.466;2023-06-14T13:53:06;18.43;70.84
68098;DHT22;54886;47.036;15.466;2023-06-14T13:55:31;18.44;68.40
68098;DHT22;54886;47.036;15.466;2023-06-14T13:57:56;18.44;67.99
68098;DHT22;54886;47.036;15.466;2023-06-14T14:00:22;18.50;68.52
68098;DHT22;54886;47.036;15.466;2023-06-14T14:02:48;18.55;68.91
68098;DHT22;54886;47.036;15.466;2023-06-14T14:05:15;18.54;68.18
68098;DHT22;54886;47.036;15.466;2023-06-14T14:07:41;18.58;69.38
68098;DHT22;54886;47.036;15.466;2023-06-14T14:10:07;18.59;67.72
68098;DHT22;54886;47.036;15.466;2023-06-14T14:12:33;18.58;67.32
68098;DHT22;54886;47.036;15.466;2023-06-14T14:14:59;18.57;67.93
68098;DHT22;54886;47.036;15.466;2023-06-14T14:17:24;18.59;68.54
68098;DHT22;54886;47.036;15.466;2023-06-14T14:19:50;18.65;69.25
68098;DHT22;54886;47.036;15.466;2023-06-14T14:22:15;18.71;69.24
68098;DHT22;54886;47.036;15.466;2023-06-14T14:24:41;18.85;68.37
68098;DHT22;54886;47.036;15.466;2023-06-14T14:27:06;18.88;68.45
68098;DHT22;54886;47.036;15.466;2023-06-14T14:29:33;18.89;68.83
68098;DHT22;54886;47.036;15.466;2023-06-14T14:31:58;18.89;69.64
68098;DHT22;54886;47.036;15.466;2023-06-14T14:34:26;18.96;69.51
68098;DHT22;54886;47.036;15.466;2023-06-14T14:36:52;18.98;68.70
68098;DHT22;54886;47.036;15.466;2023-06-14T14:39:17;18.99;67.89
68098;DHT22;54886;47.036;15.466;2023-06-14T14:41:43;18.98;67.40
68098;DHT22;54886;47.036;15.466;2023-06-14T14:44:08;19.00;67.25
68098;DHT22;54886;47.036;15.466;2023-06-14T14:46:33;18.99;68.34
68098;DHT22;54886;47.036;15.466;2023-06-14T14:48:59;18.99;68.08
68098;DHT22;54886;47.036;15.466;2023-06-14T14:51:25;19.06;68.60
68098;DHT22;54886;47.036;15.466;2023-06-14T14:53:50;19.09;67.56
68098;DHT22;54886;47.036;15.466;2023-06-14T14:56:16;19.14;67.88
68098;DHT22;54886;47.036;15.466;2023-06-14T14:58:42;19.10;67.43
68098;DHT22;54886;47.036;15.466;2023-06-14T15:01:07;19.09;67.58
68098;DHT22;54886;47.036;15.466;2023-06-14T15:03:33;19.12;68.43
68098;DHT22;54886;47.036;15.466;2023-06-14T15:05:58;19.12;66.88
68098;DHT22;54886;47.036;15.466;2023-06-14T15:08:24;19.13;67.98
68098;DHT22;54886;47.036;15.466;2023-06-14T15:10:49;19.16;67.61
68098;DHT22;54886;47.036;15.466;2023-06-14T15:13:15;19.19;67.07
68098;DHT22;54886;47.036;15.466;2023-06-14T15:15:41;19.20;67.18
68098;DHT22;54886;47.036;15.466;2023-06-14T15:18:06;19.14;66.82
68098;DHT22;54886;47.036;15.466;2023-06-14T15:20:31;19.13;66.66
68098;DHT22;54886;47.036;15.466;2023-06-14T15:22:57;19.12;66.06